Latest Coastal Weather Observations for Wynyard

IDT60701

Issued at 3:45 am EDT Sunday 26 October 2014 (issued every 10 minutes, with the page automatically refreshed every 10 minutes)

About coastal observations | Map of coastal stations | Coastal observations for TAS | Marine services | Other Formats
Station Details ID: 091107 Name: WYNYARD AIRPORT Lat: -41.00 Lon: 145.73 Height: 12.0 m
Data from the previous 72 hours. | See also: Recent months at Wynyard
Date/Time
EDT
Temp

°C
Wind Pressure Rain
since 9am
mm
Weather Cloud Vis
km
Sea
Height
m
Swell
Dir
 
Speed
knots
Gust
knots
hPa Trend Height
m
Period
s
Dir
26/03:30am 13.0 E 0 4 1013.4 - 0.4 - Partly cloudy 10 - - - -
26/03:00am 13.1 E 4 6 1013.6 - 0.4 - Cloudy 10 - - - -
26/02:30am 13.3 ENE 6 10 1013.6 - 0.4 - Partly cloudy 10 - - - -
26/02:00am 13.3 ENE 6 9 1013.9 - 0.4 - Partly cloudy 10 - - - -
26/01:30am 13.2 ENE 6 9 1014.2 - 0.4 - Partly cloudy 10 - - - -
26/01:19am 12.8 ESE 4 6 1015.1 - 0.4 - Partly cloudy 10 - - - -
26/01:00am 12.7 E 3 5 1015.5 - 0.4 - Partly cloudy 10 - - - -
26/12:30am 12.8 SE 5 6 1015.6 - 0.4 - Partly cloudy 10 - - - -
26/12:00am 13.2 E 5 8 1015.7 - 0.4 - Cloudy 10 - - - -
 
Date/Time
EDT
Temp

°C
Wind Pressure Rain
since 9am
mm
Weather Cloud Vis
km
Sea
Height
m
Swell
Dir
 
Speed
knots
Gust
knots
hPa Trend Height
m
Period
s
Dir
25/11:30pm 13.4 E 6 8 1016.0 - 0.4 - Cloudy 10 - - - -
25/11:00pm 13.5 E 7 10 1016.0 - 0.4 - Partly cloudy 10 - - - -
25/10:30pm 13.6 ESE 8 10 1016.2 - 0.4 - Cloudy 10 - - - -
25/10:19pm 13.6 E 8 11 1016.1 - 0.4 - Partly cloudy 10 - - - -
25/10:00pm 13.3 E 9 12 1015.9 - 0.4 - Partly cloudy 10 - - - -
25/09:43pm 13.4 E 9 13 1015.9 - 0.4 - Partly cloudy 10 - - - -
25/09:30pm 13.5 E 10 13 1016.0 - 0.4 - Partly cloudy 10 - - - -
25/09:00pm 13.3 E 11 14 1015.9 - 0.4 - Mostly clear 10 - - - -
25/08:30pm 13.4 E 9 12 1015.9 - 0.4 - Partly cloudy 10 - - - -
25/08:00pm 13.6 E 8 13 1015.4 - 0.4 - - 10 - - - -
25/07:30pm 14.1 E 9 12 1015.3 - 0.4 - - 10 - - - -
25/07:00pm 15.0 E 9 15 1014.8 - 0.4 - - 10 - - - -
25/06:30pm 15.3 E 9 12 1014.3 - 0.4 - - 10 - - - -
25/06:00pm 17.8 E 7 9 1013.8 - 0.4 - - 10 - - - -
25/05:30pm 17.6 E 5 8 1013.6 - 0.4 - - 10 - - - -
25/05:00pm 18.1 E 9 13 1013.6 - 0.4 - - 10 - - - -
25/04:30pm 19.5 ENE 6 10 1013.6 - 0.4 - - 10 - - - -
25/04:00pm 20.2 NE 7 10 1013.6 - 0.4 - - 10 - - - -
25/03:30pm 20.2 NNE 5 7 1013.7 - 0.4 - - 10 - - - -
25/03:00pm 20.2 N 5 7 1014.0 - 0.4 - Mostly cloudy 10 - - - -
25/02:30pm 18.8 N 7 9 1014.2 - 0.4 - - 10 - - - -
25/02:00pm 18.9 NNE 7 9 1014.0 - 0.4 - - 10 - - - -
25/01:30pm 18.8 NE 8 10 1014.1 - 0.4 - - 10 - - - -
25/01:00pm 19.4 ENE 8 11 1014.2 - 0.4 - - 10 - - - -
25/12:30pm 20.7 ENE 10 12 1014.2 - 0.4 - Partly cloudy 10 - - - -
25/12:00pm 20.9 S 5 10 1014.7 - 0.2 - Partly cloudy 10 - - - -
25/11:30am 20.4 SSW 9 12 1014.9 - 0.2 - - 10 - - - -
25/11:00am 19.2 SSW 9 12 1014.9 - 0.2 - - 10 - - - -
25/10:30am 18.0 SW 12 15 1015.0 - 0.2 - - 10 - - - -
25/10:00am 17.9 SW 11 15 1015.4 - 0.2 - - 10 - - - -
25/09:30am 16.9 SW 11 16 1015.3 - 0.0 - - 10 - - - -
25/09:00am 15.8 WSW 10 16 1015.2 - 0.4 - - 10 - - - -
25/08:30am 15.4 W 10 13 1014.9 - 0.4 - - 10 - - - -
25/08:00am 14.5 W 8 11 1014.7 - 0.4 - - 10 - - - -
25/07:30am 13.1 WSW 5 8 1014.3 - 0.4 - Partly cloudy 10 - - - -
25/07:00am 11.5 WSW 5 7 1014.3 - 0.4 - Partly cloudy 10 - - - -
25/06:30am 10.9 W 7 8 1013.8 - 0.4 - Partly cloudy 10 - - - -
25/06:00am 11.7 WNW 6 8 1013.4 - 0.4 - Partly cloudy 10 - - - -
25/05:30am 10.6 W 7 10 1012.7 - 0.4 - - 10 - - - -
25/05:00am 11.4 W 8 10 1012.5 - 0.4 - Partly cloudy 10 - - - -
25/04:30am 12.6 NW 7 9 1012.2 - 0.4 - Partly cloudy 10 - - - -
25/04:00am 11.1 W 5 6 1012.0 - 0.4 - Partly cloudy 10 - - - -
25/03:30am 11.6 W 3 6 1011.9 - 0.4 - Partly cloudy 10 - - - -
25/03:00am 13.0 WNW 8 11 1011.6 - 0.4 - Mostly cloudy 10 - - - -
25/02:30am 13.0 WNW 9 11 1011.7 - 0.4 - Partly cloudy 10 - - - -
25/02:00am 13.4 WNW 8 9 1011.7 - 0.4 - Cloudy 10 - - - -
25/01:30am 13.9 WNW 9 12 1011.8 - 0.4 - Cloudy 10 - - - -
25/01:00am 13.9 WNW 7 10 1012.0 - 0.4 - Cloudy 10 - - - -
25/12:30am 14.0 WNW 8 10 1011.9 - 0.4 - Cloudy 10 - - - -
25/12:00am 13.7 WNW 9 11 1011.3 - 0.4 - Cloudy 10 - - - -
 
Date/Time
EDT
Temp

°C
Wind Pressure Rain
since 9am
mm
Weather Cloud Vis
km
Sea
Height
m
Swell
Dir
 
Speed
knots
Gust
knots
hPa Trend Height
m
Period
s
Dir
24/11:30pm 13.5 W 11 14 1011.3 - 0.4 - Cloudy 10 - - - -
24/11:14pm 13.3 W 10 13 1011.4 - 0.4 - Partly cloudy 10 - - - -
24/11:03pm 13.3 WSW 7 10 1011.5 - 0.4 - Partly cloudy 2 - - - -
24/11:00pm 13.0 WSW 6 8 1011.5 - 0.4 - Partly cloudy 1 - - - -
24/10:30pm 11.7 WSW 4 6 1011.2 - 0.4 - Partly cloudy 0.1 - - - -
24/10:18pm 11.7 WNW 5 5 1011.1 - 0.4 - Partly cloudy 0.2 - - - -
24/10:00pm 13.7 NW 4 6 1011.0 - 0.4 - Partly cloudy 4 - - - -
24/09:59pm 13.6 WNW 4 6 1011.0 - 0.4 - Partly cloudy 4 - - - -
24/09:30pm 14.5 WNW 4 5 1011.1 - 0.4 - Cloudy 4 - - - -
24/09:00pm 14.5 CALM 0 0 1011.1 - 0.4 - Cloudy 3 - - - -
24/08:30pm 14.5 CALM 0 0 1010.6 - 0.4 - Partly cloudy 1 - - - -
24/08:00pm 14.5 CALM 0 0 1010.6 - 0.4 - Cloudy 2 - - - -
24/07:30pm 14.5 CALM 0 3 1010.7 - 0.2 - Cloudy 2 - - - -
24/07:00pm 14.6 E 6 9 1009.9 - 0.2 - Cloudy 4 - - - -
24/06:30pm 14.7 E 8 13 1009.7 - 0.2 - Cloudy 4 - - - -
24/06:00pm 14.8 E 10 15 1009.6 - 0.2 - Cloudy 2 - - - -
24/05:30pm 14.8 E 11 15 1009.9 - 0.2 - Cloudy 3 - - - -
24/05:00pm 14.8 E 11 16 1010.2 - 0.2 - Cloudy 3 - - - -
24/04:30pm 14.7 E 11 17 1010.4 - 0.2 - Cloudy 3 - - - -
24/04:00pm 14.7 E 13 20 1010.4 - 0.2 - Partly cloudy 3 - - - -
24/03:30pm 14.7 E 12 17 1011.3 - 0.2 - Partly cloudy 2 - - - -
24/03:00pm 14.6 ESE 15 21 1011.5 - 0.0 - Cloudy 2 - - - -
24/02:30pm 14.6 ESE 15 21 1012.0 - 0.0 - Cloudy 3 - - - -
24/02:03pm 14.6 E 16 23 1012.3 - 0.0 - Cloudy 5 - - - -
24/02:00pm 14.6 ESE 17 23 1012.3 - 0.0 - Cloudy 7 - - - -
24/01:30pm 14.4 E 16 21 1012.5 - 0.0 - Cloudy 7 - - - -
24/01:28pm 14.3 E 16 21 1012.5 - 0.0 - Cloudy 8 - - - -
24/01:00pm 14.2 ESE 17 26 1012.9 - 0.0 - Cloudy 5 - - - -
24/12:30pm 13.9 ESE 17 24 1013.4 - 0.0 - Cloudy 5 - - - -
24/12:00pm 13.5 ESE 17 25 1014.1 - 0.0 - Cloudy 3 - - - -
24/11:30am 13.2 ESE 19 25 1014.8 - 0.0 - Cloudy 5 - - - -
24/11:00am 12.7 ESE 16 21 1015.4 - 0.0 - Cloudy 5 - - - -
24/10:30am 12.4 ESE 13 19 1015.6 - 0.0 - Cloudy 4 - - - -
24/10:00am 11.8 ESE 15 20 1016.0 - 0.0 - Cloudy 4 - - - -
24/09:30am 11.4 ESE 14 22 1016.6 - 0.0 - Cloudy 3 - - - -
24/09:00am 11.1 ESE 15 20 1016.9 - 0.0 - Cloudy 4 - - - -
24/08:38am 10.9 ESE 15 23 1017.3 - 0.0 - Cloudy 4 - - - -
24/08:30am 11.0 E 17 24 1017.2 - 0.0 - Cloudy 4 - - - -
24/08:06am 11.2 E 17 23 1017.5 - 0.0 - Cloudy 5 - - - -
24/08:00am 11.3 E 18 23 1017.6 - 0.0 - Cloudy 6 - - - -
24/07:30am 11.8 E 18 27 1017.6 - 0.0 - Cloudy 10 - - - -
24/07:00am 12.0 E 19 27 1017.9 - 0.0 - Cloudy 10 - - - -
24/06:30am 12.3 E 19 31 1018.1 - 0.0 - Partly cloudy 10 - - - -
24/06:17am 12.3 E 18 28 1018.2 - 0.0 - Partly cloudy 10 - - - -
24/06:00am 12.4 E 19 25 1018.3 - 0.0 - Cloudy 10 - - - -
24/05:32am 12.3 E 17 27 1018.6 - 0.0 - Partly cloudy 10 - - - -
24/05:30am 12.3 E 17 25 1018.6 - 0.0 - Partly cloudy 10 - - - -
24/05:07am 12.2 E 18 28 1018.7 - 0.0 - Partly cloudy 10 - - - -
24/05:00am 12.3 E 20 27 1018.6 - 0.0 - Partly cloudy 10 - - - -
24/04:30am 12.2 E 20 27 1018.6 - 0.0 - Partly cloudy 10 - - - -
24/04:00am 11.9 E 18 30 1019.1 - 0.0 - Cloudy 10 - - - -
24/03:54am 12.0 E 17 28 1019.1 - 0.0 - Cloudy 10 - - - -
24/03:30am 12.0 E 19 27 1019.8 - 0.0 - Cloudy 10 - - - -
24/03:20am 12.0 E 19 29 1019.8 - 0.0 - Cloudy 10 - - - -
24/03:00am 12.0 E 19 26 1020.2 - 0.0 - Cloudy 10 - - - -
24/02:30am 12.1 E 17 26 1020.7 - 0.0 - Cloudy 10 - - - -
24/02:06am 12.3 E 17 30 1020.9 - 0.0 - Cloudy 10 - - - -
24/02:00am 12.3 E 17 25 1021.0 - 0.0 - Cloudy 10 - - - -
24/01:37am 12.5 E 18 28 1021.5 - 0.0 - Cloudy 10 - - - -
24/01:30am 12.4 E 19 27 1021.6 - 0.0 - Cloudy 10 - - - -
24/01:00am 12.4 E 17 32 1022.0 - 0.0 - Cloudy 10 - - - -
24/12:32am 12.5 E 16 28 1022.4 - 0.0 - Partly cloudy 9 - - - -
24/12:30am 12.5 E 16 24 1022.5 - 0.0 - Partly cloudy 9 - - - -
24/12:00am 12.2 ENE 17 27 1022.7 - 0.0 - Mostly clear 9 - - - -
 
Date/Time
EDT
Temp

°C
Wind Pressure Rain
since 9am
mm
Weather Cloud Vis
km
Sea
Height
m
Swell
Dir
 
Speed
knots
Gust
knots
hPa Trend Height
m
Period
s
Dir
23/11:31pm 12.2 ENE 17 28 1023.0 - 0.0 - - 8 - - - -
23/11:30pm 12.3 ENE 17 26 1023.0 - 0.0 - - 8 - - - -
23/11:00pm 12.4 ENE 19 29 1023.2 - 0.0 - Partly cloudy 8 - - - -
23/10:46pm 12.5 ENE 15 25 1023.3 - 0.0 - Partly cloudy 8 - - - -
23/10:30pm 12.4 ENE 12 20 1023.4 - 0.0 - Partly cloudy 8 - - - -
23/10:00pm 12.7 E 11 17 1023.6 - 0.0 - Cloudy 8 - - - -
23/09:30pm 12.9 ENE 11 19 1023.4 - 0.0 - Cloudy 9 - - - -
23/09:00pm 12.6 E 9 12 1023.1 - 0.0 - Cloudy 8 - - - -
23/08:30pm 12.7 ENE 9 14 1022.9 - 0.0 - Cloudy 9 - - - -
23/08:00pm 12.7 E 6 8 1022.9 - 0.0 - Partly cloudy 9 - - - -
23/07:30pm 13.0 E 7 11 1022.7 - 0.0 - Partly cloudy 9 - - - -
23/07:00pm 13.9 ENE 7 11 1022.5 - 0.0 - Partly cloudy 10 - - - -
23/06:30pm 14.5 E 7 9 1022.4 - 0.0 - - 10 - - - -
23/06:00pm 14.8 E 7 10 1022.4 - 0.0 - - 10 - - - -
23/05:30pm 15.1 E 7 12 1022.5 - 0.0 - - 10 - - - -
23/05:00pm 15.1 ENE 9 11 1022.5 - 0.0 - - 10 - - - -
23/04:30pm 15.7 NE 10 13 1022.4 - 0.0 - - 10 - - - -
23/04:00pm 15.7 NE 10 13 1022.5 - 0.0 - - 10 - - - -
23/03:30pm 15.4 NE 9 14 1022.6 - 0.0 - - 10 - - - -
23/03:00pm 16.1 NE 10 13 1022.7 - 0.0 - - 10 - - - -
23/02:30pm 16.1 NNE 11 14 1022.8 - 0.0 - - 10 - - - -
23/02:00pm 15.4 NNE 13 16 1022.7 - 0.0 - - 10 - - - -
23/01:30pm 16.5 NE 10 13 1022.7 - 0.0 - - 10 - - - -
23/01:00pm 16.4 NE 10 13 1022.7 - 0.0 - Partly cloudy 10 - - - -
23/12:30pm 16.6 NNE 10 12 1022.7 - 0.0 - - 10 - - - -
23/12:00pm 16.8 ENE 10 13 1022.7 - 0.0 - - 10 - - - -
23/11:30am 16.1 ENE 13 18 1022.7 - 0.0 - - 10 - - - -
23/11:00am 16.5 ENE 11 16 1022.7 - 0.0 - - 10 - - - -
23/10:30am 16.0 ENE 10 17 1022.8 - 0.0 - Partly cloudy 10 - - - -
23/10:00am 15.6 ENE 9 15 1022.7 - 0.0 - Cloudy 10 - - - -
23/09:30am 14.8 ENE 8 13 1022.4 - 0.0 - Cloudy 10 - - - -
23/09:00am 15.5 ENE 7 11 1021.8 - 0.0 - Mostly cloudy 10 - - - -
23/08:30am 15.5 ESE 7 11 1021.4 - 0.0 - - 10 - - - -
23/08:00am 14.8 E 7 10 1021.3 - 0.0 - Partly cloudy 10 - - - -
23/07:30am 11.3 SSE 1 4 1021.0 - 0.0 - - 10 - - - -
23/07:00am 8.4 SSE 1 4 1020.6 - 0.0 - - 10 - - - -
23/06:30am 7.1 SW 3 5 1020.0 - 0.0 - - 8 - - - -
23/06:00am 7.8 WNW 3 4 1019.5 - 0.0 - - 10 - - - -
23/05:30am 8.2 SSW 2 4 1019.0 - 0.0 - - 9 - - - -
23/05:00am 9.0 CALM 0 0 1018.6 - 0.0 - - 10 - - - -
23/04:30am 8.7 WSW 3 4 1017.9 - 0.0 - - 10 - - - -
23/04:00am 9.1 SW 3 4 1017.6 - 0.0 - - 10 - - - -

Other Formats:

Comma delimited format used in spreadsheet applications
http://www.bom.gov.au/fwo/IDT60701/IDT60701.95957.axf

JavaScript Object Notation format (JSON) in row-major order
http://www.bom.gov.au/fwo/IDT60701/IDT60701.95957.json